createdAt,value
2023-08-20T00:01:27.100Z,10.20
2023-08-20T00:06:29.346Z,10.32
2023-08-20T00:11:31.256Z,9.73
2023-08-20T00:16:33.634Z,9.77
2023-08-20T00:21:35.894Z,10.00
2023-08-20T00:26:37.974Z,10.65
2023-08-20T00:31:39.846Z,10.05
2023-08-20T00:36:41.960Z,10.93
2023-08-20T00:41:43.793Z,11.02
2023-08-20T00:46:45.691Z,10.93
2023-08-20T00:51:47.531Z,11.13
2023-08-20T00:56:50.531Z,10.88
2023-08-20T01:01:52.566Z,11.45
2023-08-20T01:07:15.462Z,11.80
2023-08-20T01:12:18.288Z,11.60
2023-08-20T01:17:20.204Z,11.57
2023-08-20T01:22:31.059Z,11.63
2023-08-20T01:27:51.295Z,11.68
2023-08-20T01:32:54.049Z,11.93
2023-08-20T01:37:55.915Z,12.13
2023-08-20T01:42:57.796Z,12.20
2023-08-20T01:47:59.691Z,11.98
2023-08-20T01:53:01.631Z,12.63
2023-08-20T01:58:03.569Z,12.30
2023-08-20T02:03:05.882Z,12.23
2023-08-20T02:08:07.904Z,12.30
2023-08-20T02:13:09.841Z,11.98
2023-08-20T02:18:11.740Z,12.82
2023-08-20T02:23:13.889Z,13.20
2023-08-20T02:28:15.882Z,12.77
2023-08-20T02:33:17.733Z,13.18
2023-08-20T02:38:19.672Z,14.32
2023-08-20T02:43:21.766Z,13.70
2023-08-20T02:48:23.756Z,14.25
2023-08-20T02:53:25.588Z,13.93
2023-08-20T02:58:27.526Z,13.73
2023-08-20T03:03:29.311Z,13.50
2023-08-20T03:13:32.830Z,12.68
2023-08-20T03:18:34.718Z,11.82
2023-08-20T03:23:37.065Z,11.65
2023-08-20T03:28:38.986Z,11.98
2023-08-20T03:33:40.852Z,11.45
2023-08-20T03:38:43.034Z,11.27
2023-08-20T03:43:44.950Z,12.75
2023-08-20T03:48:46.955Z,12.52
2023-08-20T03:53:48.968Z,13.63
2023-08-20T03:58:51.596Z,13.88
2023-08-20T04:03:53.606Z,15.85
2023-08-20T04:08:55.601Z,15.77
2023-08-20T04:13:57.482Z,17.52
2023-08-20T04:18:59.439Z,17.67
2023-08-20T04:24:01.341Z,17.00
2023-08-20T04:29:03.376Z,17.98
2023-08-20T04:34:05.413Z,17.70
2023-08-20T04:39:07.398Z,17.48
2023-08-20T04:44:09.316Z,17.55
2023-08-20T04:49:11.234Z,18.38
2023-08-20T04:54:13.180Z,20.38
2023-08-20T04:59:15.104Z,18.83
2023-08-20T05:04:17.091Z,17.95
2023-08-20T05:09:19.060Z,17.13
2023-08-20T05:14:21.022Z,16.80
2023-08-20T05:19:22.956Z,14.35
2023-08-20T05:24:24.810Z,14.95
2023-08-20T05:29:26.720Z,13.93
2023-08-20T05:34:28.658Z,13.75
2023-08-20T05:39:38.391Z,12.80
2023-08-20T05:44:40.316Z,10.93
2023-08-20T05:49:42.159Z,9.30
2023-08-20T05:54:43.959Z,9.10
2023-08-20T05:59:45.902Z,8.32
2023-08-20T06:04:47.762Z,7.70
2023-08-20T06:09:49.546Z,7.65
2023-08-20T06:14:51.446Z,6.70
2023-08-20T06:19:53.380Z,6.80
2023-08-20T06:24:55.527Z,6.55
2023-08-20T06:29:57.690Z,7.13
2023-08-20T06:34:59.739Z,7.38
2023-08-20T06:40:01.673Z,7.22
2023-08-20T06:45:04.569Z,8.07
2023-08-20T06:50:07.007Z,6.78
2023-08-20T06:55:09.266Z,7.10
2023-08-20T07:00:11.365Z,6.10
2023-08-20T07:05:13.383Z,5.95
2023-08-20T07:10:15.415Z,5.68
2023-08-20T07:15:17.285Z,5.18
2023-08-20T07:20:19.135Z,4.90
2023-08-20T07:25:20.982Z,5.05
2023-08-20T07:30:22.878Z,4.50
2023-08-20T07:35:25.165Z,4.43
2023-08-20T07:40:27.039Z,4.95
2023-08-20T07:45:28.896Z,4.65
2023-08-20T07:50:31.068Z,4.57
2023-08-20T07:55:33.017Z,4.13
2023-08-20T08:00:34.973Z,4.18
2023-08-20T08:05:37.391Z,3.88
2023-08-20T08:10:39.479Z,4.57
2023-08-20T08:15:41.456Z,4.88
2023-08-20T08:20:43.328Z,4.97
2023-08-20T08:25:45.263Z,5.60
2023-08-20T08:30:47.113Z,5.32
2023-08-20T08:35:48.988Z,5.38
2023-08-20T08:40:50.988Z,5.55
2023-08-20T08:45:52.865Z,5.20
2023-08-20T08:50:55.065Z,5.35
2023-08-20T08:55:57.054Z,6.82
2023-08-20T09:00:59.133Z,5.05
2023-08-20T09:06:01.847Z,4.90
2023-08-20T09:11:03.776Z,4.90
2023-08-20T09:16:10.258Z,4.68
2023-08-20T09:21:13.129Z,4.30
2023-08-20T09:26:15.111Z,5.10
2023-08-20T09:31:17.073Z,4.80
2023-08-20T09:36:19.392Z,5.40
2023-08-20T09:41:21.349Z,4.38
2023-08-20T09:46:23.353Z,4.47
2023-08-20T09:51:28.917Z,4.30
2023-08-20T09:56:31.807Z,4.28
2023-08-20T10:01:34.079Z,4.50
2023-08-20T10:06:36.084Z,4.35
2023-08-20T10:11:38.137Z,4.32
2023-08-20T10:16:40.232Z,4.32
2023-08-20T10:21:45.844Z,4.43
2023-08-20T10:26:48.265Z,4.65
2023-08-20T10:31:50.250Z,3.95
2023-08-20T10:36:52.206Z,4.18
2023-08-20T10:42:10.424Z,3.65
2023-08-20T10:47:12.455Z,3.90
2023-08-20T10:52:14.465Z,3.78
2023-08-20T10:57:16.323Z,4.10
2023-08-20T11:02:18.347Z,3.80
2023-08-20T11:07:20.466Z,3.88
2023-08-20T11:12:22.340Z,3.65
2023-08-20T11:17:24.335Z,3.90
2023-08-20T11:22:26.259Z,3.83
2023-08-20T11:27:28.462Z,4.20
2023-08-20T11:32:31.698Z,3.88
2023-08-20T11:37:34.423Z,4.20
2023-08-20T11:42:36.567Z,4.20
2023-08-20T11:47:41.914Z,3.95
2023-08-20T11:52:43.873Z,4.80
2023-08-20T11:57:51.404Z,5.93
2023-08-20T12:02:56.300Z,6.82
2023-08-20T12:08:02.525Z,7.65
2023-08-20T12:13:04.622Z,8.03
2023-08-20T12:18:06.904Z,8.35
2023-08-20T12:23:08.961Z,6.05
2023-08-20T12:28:10.792Z,4.22
2023-08-20T12:33:12.801Z,5.78
2023-08-20T12:38:14.886Z,4.90
2023-08-20T12:43:16.762Z,4.60
2023-08-20T12:53:20.395Z,5.25
2023-08-20T12:58:22.489Z,5.03
2023-08-20T13:03:24.815Z,4.60
2023-08-20T13:08:27.067Z,5.07
2023-08-20T13:13:29.193Z,5.68
2023-08-20T13:18:31.684Z,5.55
2023-08-20T13:23:33.633Z,6.03
2023-08-20T13:28:35.489Z,6.57
2023-08-20T13:33:37.406Z,6.40
2023-08-20T13:38:39.245Z,6.70
2023-08-20T13:43:41.135Z,6.75
2023-08-20T13:48:42.980Z,7.70
2023-08-20T13:53:46.009Z,10.05
2023-08-20T13:58:47.906Z,8.95
2023-08-20T14:03:49.802Z,9.15
2023-08-20T14:08:52.024Z,9.65
2023-08-20T14:13:53.984Z,9.55
2023-08-20T14:18:56.053Z,9.82
2023-08-20T14:23:57.976Z,10.00
2023-08-20T14:28:59.990Z,10.40
2023-08-20T14:34:02.083Z,14.15
2023-08-20T14:39:04.203Z,12.38
2023-08-20T14:44:06.537Z,13.15
2023-08-20T14:49:08.497Z,12.68
2023-08-20T14:54:10.337Z,13.82
2023-08-20T14:59:12.371Z,11.48
2023-08-20T15:04:14.189Z,7.80
2023-08-20T15:09:16.125Z,7.80
2023-08-20T15:14:18.109Z,8.23
2023-08-20T15:19:20.144Z,7.38
2023-08-20T15:24:22.090Z,7.40
2023-08-20T15:29:24.124Z,8.30
2023-08-20T15:34:26.045Z,9.00
2023-08-20T15:39:28.039Z,9.32
2023-08-20T15:44:30.035Z,8.65
2023-08-20T15:49:31.940Z,8.00
2023-08-20T15:54:35.370Z,8.55
2023-08-20T15:59:39.323Z,7.68
2023-08-20T16:04:41.228Z,7.57
2023-08-20T16:09:44.246Z,8.18
2023-08-20T16:14:46.186Z,6.30
2023-08-20T16:19:48.130Z,6.40
2023-08-20T16:24:50.034Z,6.63
2023-08-20T16:29:51.849Z,6.80
2023-08-20T16:39:55.442Z,5.95
2023-08-20T16:44:58.079Z,5.82
2023-08-20T16:50:00.556Z,6.38
2023-08-20T16:55:02.538Z,6.53
2023-08-20T17:00:06.682Z,7.95
2023-08-20T17:05:08.844Z,6.47
2023-08-20T17:10:10.746Z,5.70
2023-08-20T17:15:12.983Z,5.60
2023-08-20T17:20:15.457Z,5.35
2023-08-20T17:25:18.769Z,4.13
2023-08-20T17:30:21.548Z,3.33
2023-08-20T17:35:23.485Z,3.65
2023-08-20T17:45:27.415Z,3.17
2023-08-20T17:55:34.486Z,3.10
2023-08-20T18:00:36.406Z,2.45
2023-08-20T18:10:40.070Z,2.40
2023-08-20T18:15:41.987Z,2.63
2023-08-20T18:25:45.584Z,2.50
2023-08-20T18:36:03.514Z,3.08
2023-08-20T18:41:05.713Z,2.95
2023-08-20T18:46:07.624Z,2.90
2023-08-20T18:56:11.155Z,3.03
2023-08-20T19:01:13.110Z,3.38
2023-08-20T19:11:16.758Z,3.53
2023-08-20T19:21:20.332Z,3.50
2023-08-20T19:26:22.261Z,4.25
2023-08-20T19:36:26.136Z,4.60
2023-08-20T19:41:28.006Z,3.55
2023-08-20T19:46:29.935Z,2.95
2023-08-20T19:51:31.849Z,2.60
2023-08-20T19:56:33.757Z,3.10
2023-08-20T20:01:49.053Z,2.58
2023-08-20T20:06:50.942Z,2.70
2023-08-20T20:11:52.878Z,2.58
2023-08-20T20:16:54.826Z,2.40
2023-08-20T20:26:58.496Z,2.80
2023-08-20T20:32:00.395Z,2.30
2023-08-20T20:37:02.289Z,2.40
2023-08-20T20:42:04.354Z,2.42
2023-08-20T20:52:08.070Z,1.98
2023-08-20T20:57:10.067Z,2.05
2023-08-20T21:02:12.113Z,2.20
2023-08-20T21:12:16.039Z,2.20
2023-08-20T21:17:17.976Z,2.30
2023-08-20T21:22:19.913Z,2.60
2023-08-20T21:27:21.844Z,2.00
2023-08-20T21:37:25.489Z,1.85
2023-08-20T21:42:27.787Z,2.22
2023-08-20T21:47:29.912Z,1.98
2023-08-20T21:52:32.088Z,1.30
2023-08-20T21:57:33.995Z,1.60
2023-08-20T22:02:36.196Z,1.50
2023-08-20T22:07:38.279Z,1.90
2023-08-20T22:12:40.312Z,1.70
2023-08-20T22:17:42.242Z,1.75
2023-08-20T22:22:44.109Z,2.00
2023-08-20T22:27:46.034Z,2.03
2023-08-20T22:32:47.990Z,1.80
2023-08-20T22:38:11.568Z,2.00
2023-08-20T22:43:13.586Z,1.90
2023-08-20T22:48:15.524Z,2.25
2023-08-20T22:53:17.512Z,2.10
2023-08-20T22:58:22.370Z,2.40
2023-08-20T23:03:24.300Z,2.60
2023-08-20T23:08:26.199Z,3.25
2023-08-20T23:13:28.111Z,3.42
2023-08-20T23:18:30.615Z,3.90
2023-08-20T23:23:32.811Z,4.32
2023-08-20T23:28:34.723Z,4.47
2023-08-20T23:33:36.580Z,5.07
2023-08-20T23:38:39.778Z,5.63
2023-08-20T23:43:41.742Z,6.05
2023-08-20T23:48:43.632Z,6.13
2023-08-20T23:53:45.713Z,6.18
2023-08-20T23:58:47.622Z,6.70
